Time;durP1;ratioP1;P1;durP2;ratioP2;P2;SDS_P1;SDS_P2;PMS_P1;PMS_P2;Temp;Humidity;BMP_temperature;BMP_pressure;BME280_temperature;BME280_humidity;BME280_pressure;Samples;Min_cycle;Max_cycle;Signal;HPM_P1;HPM_P2
2022/10/16 00:00:56;;;;;;;0.00;0.00;;;;;;;13.29;100.00;99934.22;5010761;28;20606;-76
2022/10/16 00:03:21;;;;;;;0.00;0.00;;;;;;;13.26;100.00;99943.16;5010572;28;20200;-76
2022/10/16 00:05:47;;;;;;;0.00;0.00;;;;;;;13.21;100.00;99935.94;5010697;28;20173;-77
2022/10/16 00:08:13;;;;;;;0.00;0.00;;;;;;;13.16;100.00;99940.81;5010741;28;20177;-76
2022/10/16 00:10:39;;;;;;;0.00;0.00;;;;;;;13.17;100.00;99943.25;5013083;28;20180;-76
2022/10/16 00:13:05;;;;;;;0.10;0.10;;;;;;;13.28;100.00;99949.09;5014435;28;20183;-76
2022/10/16 00:15:36;;;;;;;0.00;0.00;;;;;;;13.29;100.00;99945.19;5029556;28;20183;-76
2022/10/16 00:18:01;;;;;;;0.33;0.33;;;;;;;13.35;100.00;99941.09;5014227;28;20192;-73
2022/10/16 00:20:27;;;;;;;0.00;0.00;;;;;;;13.21;100.00;99949.66;5014411;28;20676;-74
2022/10/16 00:22:52;;;;;;;0.00;0.00;;;;;;;13.04;100.00;99955.31;5014245;28;20185;-74
2022/10/16 00:25:17;;;;;;;0.00;0.00;;;;;;;12.98;100.00;99951.19;5014348;28;20243;-73
2022/10/16 00:27:43;;;;;;;0.00;0.00;;;;;;;13.00;100.00;99941.47;5014059;28;20633;-74
2022/10/16 00:30:08;;;;;;;0.00;0.00;;;;;;;12.98;100.00;99941.00;5013898;28;20200;-74
2022/10/16 00:32:34;;;;;;;0.00;0.00;;;;;;;13.06;100.00;99942.06;5014084;28;20177;-74
2022/10/16 00:34:59;;;;;;;0.00;0.00;;;;;;;13.19;100.00;99956.66;5014065;28;20171;-73
2022/10/16 00:37:24;;;;;;;0.00;0.00;;;;;;;13.20;100.00;99961.78;5013897;28;20260;-75
2022/10/16 00:39:50;;;;;;;0.00;0.00;;;;;;;13.20;100.00;99969.22;5014335;28;20632;-74
2022/10/16 00:42:17;;;;;;;0.00;0.00;;;;;;;13.28;100.00;99968.28;5013667;28;20232;-74
2022/10/16 00:44:49;;;;;;;0.00;0.00;;;;;;;13.22;100.00;99969.66;5012630;28;20219;-74
2022/10/16 00:47:24;;;;;;;0.10;0.10;;;;;;;13.17;100.00;99969.88;5028787;28;20173;-73
2022/10/16 00:49:52;;;;;;;0.00;0.00;;;;;;;13.12;100.00;99968.13;5013905;28;20613;-76
2022/10/16 00:52:19;;;;;;;0.00;0.00;;;;;;;13.22;100.00;99975.97;5013738;28;20176;-74
2022/10/16 00:54:47;;;;;;;0.00;0.00;;;;;;;13.31;100.00;99976.66;5013693;28;20179;-74
2022/10/16 00:57:12;;;;;;;0.00;0.00;;;;;;;13.16;100.00;99977.28;5013489;28;20180;-74
2022/10/16 00:59:40;;;;;;;0.00;0.00;;;;;;;13.24;100.00;99970.94;5013573;28;20192;-74
2022/10/16 01:02:11;;;;;;;0.00;0.00;;;;;;;13.21;100.00;99979.03;5013406;28;20215;-74
2022/10/16 01:04:40;;;;;;;0.00;0.00;;;;;;;13.19;100.00;99979.38;5013412;28;20185;-74
2022/10/16 01:07:30;;;;;;;0.00;0.00;;;;;;;13.29;100.00;99978.13;5013400;28;20172;-74
2022/10/16 01:10:20;;;;;;;0.00;0.00;;;;;;;13.42;100.00;99979.75;5012050;28;20180;-74
2022/10/16 01:12:58;;;;;;;0.00;0.00;;;;;;;13.31;100.00;99968.44;5013477;28;20554;-74
2022/10/16 01:15:58;;;;;;;0.00;0.00;;;;;;;13.41;100.00;99972.66;5013423;28;20210;-74
2022/10/16 01:18:43;;;;;;;0.00;0.00;;;;;;;13.46;100.00;99969.72;5010029;28;20204;-73
2022/10/16 01:21:13;;;;;;;0.00;0.00;;;;;;;13.41;100.00;99961.69;5012151;28;20196;-74
2022/10/16 01:23:50;;;;;;;0.00;0.00;;;;;;;13.44;100.00;99966.47;5013511;28;20630;-75
2022/10/16 01:26:35;;;;;;;0.00;0.00;;;;;;;13.40;100.00;99971.06;5028119;28;20184;-74
2022/10/16 01:29:16;;;;;;;0.00;0.00;;;;;;;13.46;100.00;99975.19;5013145;28;20156;-73
2022/10/16 01:31:48;;;;;;;0.00;0.00;;;;;;;13.43;100.00;99975.06;5012873;28;20180;-74
2022/10/16 01:34:17;;;;;;;0.00;0.00;;;;;;;13.40;100.00;99974.59;5013025;28;20525;-74
2022/10/16 01:36:52;;;;;;;2.37;2.33;;;;;;;13.36;100.00;99973.69;5012799;28;20169;-74
2022/10/16 01:39:21;;;;;;;0.00;0.00;;;;;;;13.30;100.00;99975.03;5013063;28;20168;-73
2022/10/16 01:41:52;;;;;;;0.00;0.00;;;;;;;13.32;100.00;99972.78;5012678;28;20204;-74
2022/10/16 01:44:22;;;;;;;0.00;0.00;;;;;;;13.43;100.00;99992.31;5012811;28;20315;-74
2022/10/16 01:46:51;;;;;;;0.10;0.10;;;;;;;13.47;100.00;99989.72;5011534;28;20180;-73
2022/10/16 01:49:18;;;;;;;0.00;0.00;;;;;;;13.37;100.00;99991.75;5012663;28;20176;-73
2022/10/16 01:51:46;;;;;;;0.00;0.00;;;;;;;13.38;100.00;99998.84;5012664;28;20180;-74
2022/10/16 01:54:13;;;;;;;0.00;0.00;;;;;;;13.19;100.00;99992.31;5012599;28;20172;-73
2022/10/16 01:56:39;;;;;;;0.00;0.00;;;;;;;13.24;100.00;99997.56;5012445;28;20188;-73
2022/10/16 01:59:11;;;;;;;0.00;0.00;;;;;;;13.16;100.00;99990.97;5012476;28;20169;-73
2022/10/16 02:01:40;;;;;;;0.00;0.00;;;;;;;13.16;100.00;99993.72;5012466;28;20287;-73
2022/10/16 02:04:15;;;;;;;0.00;0.00;;;;;;;13.11;100.00;100000.25;5022981;28;20192;-73
2022/10/16 02:06:40;;;;;;;0.00;0.00;;;;;;;13.23;100.00;100005.00;5031972;28;20713;-74
2022/10/16 02:09:06;;;;;;;0.00;0.00;;;;;;;13.23;100.00;100006.94;5032135;28;20176;-73
2022/10/16 02:11:31;;;;;;;0.83;0.83;;;;;;;13.13;100.00;100010.06;5031980;28;20163;-73
2022/10/16 02:14:04;;;;;;;0.00;0.00;;;;;;;13.09;100.00;100009.94;5031983;28;20643;-74
2022/10/16 02:16:41;;;;;;;0.00;0.00;;;;;;;13.13;100.00;100018.28;5032087;28;20160;-74
2022/10/16 02:19:07;;;;;;;0.00;0.00;;;;;;;13.08;100.00;100022.88;5032009;28;20186;-73
2022/10/16 02:21:42;;;;;;;0.00;0.00;;;;;;;13.06;100.00;100016.13;5031789;28;20207;-73
2022/10/16 02:24:22;;;;;;;0.00;0.00;;;;;;;13.11;100.00;100032.34;5031800;28;20167;-73
2022/10/16 02:26:57;;;;;;;0.10;0.10;;;;;;;13.07;100.00;100026.75;5031656;28;20203;-73
2022/10/16 02:29:25;;;;;;;0.00;0.00;;;;;;;13.08;100.00;100028.34;5031684;28;20168;-73
2022/10/16 02:31:58;;;;;;;0.00;0.00;;;;;;;13.02;100.00;100035.19;5031370;28;20256;-74
2022/10/16 02:34:25;;;;;;;0.00;0.00;;;;;;;13.06;100.00;100035.31;5031544;28;20175;-74
2022/10/16 02:36:52;;;;;;;0.00;0.00;;;;;;;12.95;100.00;100023.97;5031732;28;20233;-74
2022/10/16 02:39:19;;;;;;;0.00;0.00;;;;;;;12.96;100.00;100030.25;5031452;28;20638;-73
2022/10/16 02:41:45;;;;;;;0.63;0.63;;;;;;;12.89;100.00;100030.81;5031345;28;20682;-73
2022/10/16 02:44:10;;;;;;;0.00;0.00;;;;;;;12.84;100.00;100024.72;5031701;28;20257;-74
2022/10/16 02:46:35;;;;;;;0.00;0.00;;;;;;;12.86;100.00;100027.91;5031275;28;20205;-74
2022/10/16 02:49:01;;;;;;;1.03;1.03;;;;;;;12.80;100.00;100019.09;5031385;28;20175;-73
2022/10/16 02:51:26;;;;;;;0.00;0.00;;;;;;;12.76;100.00;100027.22;5031559;28;20176;-73
2022/10/16 02:53:52;;;;;;;0.00;0.00;;;;;;;12.71;100.00;100023.84;5031370;28;20176;-74
2022/10/16 02:56:17;;;;;;;0.00;0.00;;;;;;;12.67;100.00;100025.66;5031219;28;20183;-74
2022/10/16 02:58:42;;;;;;;0.00;0.00;;;;;;;12.61;100.00;100018.81;5031193;28;20853;-73
2022/10/16 03:01:08;;;;;;;0.00;0.00;;;;;;;12.58;100.00;100020.25;5031308;28;20716;-73
2022/10/16 03:03:33;;;;;;;0.00;0.00;;;;;;;12.47;100.00;100019.88;5031325;28;20770;-73
2022/10/16 03:05:58;;;;;;;0.00;0.00;;;;;;;12.42;100.00;100013.78;5031191;28;20195;-74
2022/10/16 03:08:25;;;;;;;0.00;0.00;;;;;;;12.33;100.00;100008.38;5032281;28;20486;-74
2022/10/16 03:10:51;;;;;;;0.07;0.07;;;;;;;12.26;100.00;100001.81;5033612;28;20197;-74
2022/10/16 03:13:16;;;;;;;0.17;0.10;;;;;;;12.18;100.00;100006.22;5031948;28;20815;-74
2022/10/16 03:15:42;;;;;;;0.00;0.00;;;;;;;12.15;100.00;100009.59;5031094;28;20175;-74
2022/10/16 03:18:07;;;;;;;0.00;0.00;;;;;;;12.08;100.00;100001.13;5030815;28;20176;-75
2022/10/16 03:20:32;;;;;;;0.00;0.00;;;;;;;12.01;100.00;99998.13;5030851;28;20172;-75
2022/10/16 03:22:58;;;;;;;0.00;0.00;;;;;;;11.96;100.00;100009.25;5030793;28;20208;-74
2022/10/16 03:25:23;;;;;;;0.00;0.00;;;;;;;11.89;100.00;100002.38;5030926;28;20179;-74
2022/10/16 03:27:48;;;;;;;0.00;0.00;;;;;;;11.85;100.00;100003.34;5030752;28;20180;-74
2022/10/16 03:30:14;;;;;;;0.00;0.00;;;;;;;11.83;100.00;100011.09;5030735;28;20184;-74
2022/10/16 03:32:39;;;;;;;0.00;0.00;;;;;;;11.75;100.00;100014.66;5030695;28;20553;-75
2022/10/16 03:35:05;;;;;;;0.00;0.00;;;;;;;11.73;100.00;100006.00;5030795;28;20183;-73
2022/10/16 03:37:30;;;;;;;0.00;0.00;;;;;;;11.68;100.00;100006.16;5030824;28;20841;-73
2022/10/16 03:39:55;;;;;;;0.00;0.00;;;;;;;11.62;100.00;100002.81;5030765;28;20184;-73
2022/10/16 03:42:20;;;;;;;0.00;0.00;;;;;;;11.60;100.00;100016.03;5030289;28;20207;-73
2022/10/16 03:44:46;;;;;;;0.10;0.10;;;;;;;11.55;100.00;100013.44;5031792;28;20176;-75
2022/10/16 03:47:11;;;;;;;0.00;0.00;;;;;;;11.55;100.00;100014.25;5034618;28;20199;-73
2022/10/16 03:49:36;;;;;;;0.00;0.00;;;;;;;11.56;100.00;100012.31;5024809;28;20188;-75
2022/10/16 03:52:02;;;;;;;0.00;0.00;;;;;;;11.54;100.00;100018.13;5014939;28;20173;-74
2022/10/16 03:54:27;;;;;;;0.10;0.10;;;;;;;11.57;100.00;100009.28;5015159;28;20177;-74
2022/10/16 03:56:52;;;;;;;0.00;0.00;;;;;;;11.57;100.00;100008.44;5014723;28;20672;-75
2022/10/16 03:59:18;;;;;;;0.00;0.00;;;;;;;11.58;100.00;100004.63;5014994;28;20201;-74
2022/10/16 04:01:43;;;;;;;0.00;0.00;;;;;;;11.57;100.00;100005.72;5014580;28;20208;-75
2022/10/16 04:04:08;;;;;;;0.23;0.23;;;;;;;11.60;100.00;100005.06;5014689;28;20192;-74
2022/10/16 04:06:34;;;;;;;0.00;0.00;;;;;;;11.65;100.00;100002.16;5014629;28;20168;-75
2022/10/16 04:08:59;;;;;;;0.00;0.00;;;;;;;11.67;100.00;100002.63;5014651;28;20183;-75
2022/10/16 04:11:24;;;;;;;0.20;0.20;;;;;;;11.62;100.00;99998.13;5014491;28;20199;-75
2022/10/16 04:13:50;;;;;;;0.00;0.00;;;;;;;11.68;100.00;99998.75;5014565;28;20193;-73
2022/10/16 04:16:15;;;;;;;0.00;0.00;;;;;;;11.77;100.00;100007.72;5014415;28;20636;-74
2022/10/16 04:18:40;;;;;;;0.00;0.00;;;;;;;11.79;100.00;100019.16;5014517;28;20250;-75
2022/10/16 04:21:06;;;;;;;0.00;0.00;;;;;;;11.81;100.00;100029.78;5014260;28;20212;-75
2022/10/16 04:23:32;;;;;;;0.40;0.40;;;;;;;11.78;100.00;100025.75;5013060;28;20176;-74
2022/10/16 04:25:58;;;;;;;0.00;0.00;;;;;;;11.78;100.00;100031.22;5014101;28;20628;-75
2022/10/16 04:28:23;;;;;;;0.00;0.00;;;;;;;11.76;100.00;100036.22;5014330;28;20195;-73
2022/10/16 04:30:48;;;;;;;0.00;0.00;;;;;;;11.70;100.00;100037.53;5014149;28;20699;-73
2022/10/16 04:33:14;;;;;;;0.10;0.10;;;;;;;11.70;100.00;100034.00;5029711;28;20176;-74
2022/10/16 04:35:39;;;;;;;0.00;0.00;;;;;;;11.72;100.00;100037.22;5014086;28;20180;-74
2022/10/16 04:38:04;;;;;;;0.00;0.00;;;;;;;11.79;100.00;100034.78;5014129;28;20180;-75
2022/10/16 04:40:32;;;;;;;0.00;0.00;;;;;;;11.77;100.00;100039.78;5013792;28;20196;-74
2022/10/16 04:42:58;;;;;;;0.00;0.00;;;;;;;11.71;100.00;100033.66;5014000;28;20189;-75
2022/10/16 04:45:24;;;;;;;0.00;0.00;;;;;;;11.70;100.00;100021.09;5013877;28;20203;-74
2022/10/16 04:47:49;;;;;;;0.00;0.00;;;;;;;11.72;100.00;100021.59;5013657;28;20176;-74
2022/10/16 04:50:14;;;;;;;0.00;0.00;;;;;;;11.77;100.00;100024.16;5013815;28;20267;-75
2022/10/16 04:52:40;;;;;;;0.00;0.00;;;;;;;11.82;100.00;100021.25;5013653;28;20184;-73
2022/10/16 04:55:06;;;;;;;0.00;0.00;;;;;;;11.86;100.00;100021.38;5013744;28;20178;-75
2022/10/16 04:57:33;;;;;;;0.00;0.00;;;;;;;11.93;100.00;100031.81;5013536;28;20264;-75
2022/10/16 04:59:58;;;;;;;0.00;0.00;;;;;;;12.02;100.00;100035.34;5029087;28;20247;-74
2022/10/16 05:02:24;;;;;;;0.00;0.00;;;;;;;11.98;100.00;100037.91;5013481;28;20604;-75
2022/10/16 05:04:49;;;;;;;0.00;0.00;;;;;;;11.94;100.00;100039.72;5013525;28;20190;-75
2022/10/16 05:07:14;;;;;;;0.00;0.00;;;;;;;11.91;100.00;100043.91;5013409;28;20183;-75
2022/10/16 05:09:39;;;;;;;0.20;0.20;;;;;;;12.08;100.00;100058.63;5028533;28;20195;-75
2022/10/16 05:12:05;;;;;;;0.00;0.00;;;;;;;11.91;100.00;100046.66;5013591;28;20180;-74
2022/10/16 05:14:30;;;;;;;0.00;0.00;;;;;;;11.81;100.00;100033.31;5013352;28;20200;-74
2022/10/16 05:16:56;;;;;;;0.00;0.00;;;;;;;11.91;100.00;100040.38;5013150;28;20181;-74
2022/10/16 05:19:22;;;;;;;0.00;0.00;;;;;;;11.88;100.00;100050.06;5013313;28;20180;-74
2022/10/16 05:21:47;;;;;;;0.20;0.20;;;;;;;11.84;100.00;100043.63;5012934;28;20258;-75
2022/10/16 05:24:12;;;;;;;0.00;0.00;;;;;;;11.90;100.00;100044.25;5013127;28;20188;-74
2022/10/16 05:26:38;;;;;;;0.00;0.00;;;;;;;11.93;100.00;100061.94;5013051;28;20316;-75
2022/10/16 05:29:03;;;;;;;0.00;0.00;;;;;;;12.03;100.00;100059.63;5013309;28;20590;-75
2022/10/16 05:31:29;;;;;;;0.00;0.00;;;;;;;11.88;100.00;100066.47;5012843;28;20183;-74
2022/10/16 05:34:01;;;;;;;0.00;0.00;;;;;;;12.07;100.00;100076.19;5012979;28;20172;-74
2022/10/16 05:36:26;;;;;;;0.23;0.23;;;;;;;12.11;100.00;100072.47;5012773;28;20176;-75
2022/10/16 05:38:52;;;;;;;0.00;0.00;;;;;;;12.11;100.00;100079.88;5016486;28;20179;-75
2022/10/16 05:41:23;;;;;;;0.00;0.00;;;;;;;12.12;100.00;100078.75;5032522;28;20280;-74
2022/10/16 05:43:49;;;;;;;0.00;0.00;;;;;;;12.28;100.00;100092.66;5032623;28;20167;-75
2022/10/16 05:46:15;;;;;;;0.00;0.00;;;;;;;12.28;100.00;100082.50;5032415;28;20176;-75
2022/10/16 05:48:40;;;;;;;0.00;0.00;;;;;;;12.52;100.00;100090.91;5032255;28;20267;-75
2022/10/16 05:51:08;;;;;;;0.00;0.00;;;;;;;12.50;100.00;100097.88;5032538;28;20362;-74
2022/10/16 05:53:35;;;;;;;0.00;0.00;;;;;;;12.61;100.00;100099.09;5032327;28;20221;-74
2022/10/16 05:56:02;;;;;;;0.00;0.00;;;;;;;12.63;100.00;100079.56;5032383;28;20176;-74
2022/10/16 05:58:33;;;;;;;0.00;0.00;;;;;;;12.67;100.00;100097.75;5032178;28;20532;-74
2022/10/16 06:01:00;;;;;;;0.00;0.00;;;;;;;12.69;100.00;100109.16;5001841;28;20196;-73
2022/10/16 06:03:26;;;;;;;0.00;0.00;;;;;;;12.66;100.00;100112.56;4999068;28;20287;-74
2022/10/16 06:05:52;;;;;;;0.00;0.00;;;;;;;12.72;100.00;100124.13;5012277;28;20180;-74
2022/10/16 06:08:18;;;;;;;0.00;0.00;;;;;;;12.76;100.00;100127.84;5011782;28;20184;-75
2022/10/16 06:10:45;;;;;;;0.00;0.00;;;;;;;12.81;100.00;100120.19;5025688;28;20223;-73
2022/10/16 06:13:11;;;;;;;0.00;0.00;;;;;;;12.82;100.00;100119.06;5031964;28;20624;-71
2022/10/16 06:15:38;;;;;;;0.00;0.00;;;;;;;12.94;100.00;100112.03;5031845;28;20178;-72
2022/10/16 06:18:04;;;;;;;0.00;0.00;;;;;;;13.00;100.00;100114.25;5031782;28;20183;-71
2022/10/16 06:20:30;;;;;;;0.80;0.80;;;;;;;12.98;100.00;100111.03;5031723;28;20179;-72
2022/10/16 06:22:55;;;;;;;0.00;0.00;;;;;;;13.14;100.00;100129.63;5031624;28;20176;-72
2022/10/16 06:25:20;;;;;;;0.00;0.00;;;;;;;13.12;100.00;100135.44;5031735;28;20180;-73
2022/10/16 06:27:46;;;;;;;0.00;0.00;;;;;;;13.15;100.00;100147.69;5031481;28;20234;-73
2022/10/16 06:30:11;;;;;;;0.00;0.00;;;;;;;13.08;100.00;100143.53;5031384;28;20172;-72
2022/10/16 06:32:36;;;;;;;0.97;0.50;;;;;;;13.11;100.00;100156.59;5031473;28;20661;-73
2022/10/16 06:35:02;;;;;;;0.00;0.00;;;;;;;13.13;100.00;100148.00;5031587;28;20172;-73
2022/10/16 06:37:27;;;;;;;0.00;0.00;;;;;;;13.19;100.00;100149.47;5031326;28;20175;-72
2022/10/16 06:39:52;;;;;;;0.00;0.00;;;;;;;13.16;100.00;100144.59;5019425;28;20252;-73
2022/10/16 06:42:18;;;;;;;0.30;0.30;;;;;;;13.28;100.00;100143.88;5011403;28;20208;-72
2022/10/16 06:44:43;;;;;;;0.10;0.10;;;;;;;13.30;100.00;100158.06;5011745;28;20652;-73
2022/10/16 06:47:09;;;;;;;0.30;0.30;;;;;;;13.28;100.00;100154.84;5011442;28;20215;-73
2022/10/16 06:49:34;;;;;;;2.50;1.27;;;;;;;13.46;100.00;100169.25;5011585;28;20171;-72
2022/10/16 06:52:01;;;;;;;0.00;0.00;;;;;;;13.50;100.00;100162.75;5011609;28;20176;-73
2022/10/16 06:54:26;;;;;;;0.00;0.00;;;;;;;13.59;100.00;100162.63;5011498;28;20169;-73
2022/10/16 06:56:53;;;;;;;0.10;0.10;;;;;;;13.67;100.00;100172.72;5011382;28;20177;-72
2022/10/16 06:59:21;;;;;;;0.50;0.30;;;;;;;13.73;100.00;100181.53;5011437;28;20180;-72
2022/10/16 07:01:47;;;;;;;0.20;0.17;;;;;;;13.83;100.00;100181.94;5011386;28;20207;-73
2022/10/16 07:04:12;;;;;;;0.67;0.60;;;;;;;13.90;100.00;100189.63;5011201;28;20188;-72
2022/10/16 07:06:37;;;;;;;0.37;0.37;;;;;;;13.97;100.00;100189.84;5011224;28;20181;-73
2022/10/16 07:09:06;;;;;;;4.80;0.40;;;;;;;14.09;100.00;100176.16;5011411;28;20579;-72
2022/10/16 07:11:31;;;;;;;0.10;0.10;;;;;;;14.14;100.00;100177.88;5011136;28;20173;-73
2022/10/16 07:13:57;;;;;;;0.00;0.00;;;;;;;14.17;100.00;100186.22;5011394;28;20222;-72
2022/10/16 07:16:24;;;;;;;0.10;0.10;;;;;;;14.25;100.00;100199.06;5026311;28;20181;-73
2022/10/16 07:18:51;;;;;;;0.10;0.10;;;;;;;14.37;100.00;100212.03;5010552;28;20203;-72
2022/10/16 07:21:20;;;;;;;0.30;0.30;;;;;;;14.41;100.00;100198.38;5010678;28;20680;-73
2022/10/16 07:23:50;;;;;;;0.00;0.00;;;;;;;14.42;100.00;100205.50;5011199;28;20583;-75
2022/10/16 07:26:15;;;;;;;0.00;0.00;;;;;;;14.43;100.00;100196.88;5011109;28;20187;-76
2022/10/16 07:28:42;;;;;;;0.07;0.03;;;;;;;14.54;100.00;100220.06;5011308;28;20172;-72
2022/10/16 07:31:11;;;;;;;0.07;0.00;;;;;;;14.62;100.00;100221.13;5010704;28;20263;-72
2022/10/16 07:33:38;;;;;;;0.00;0.00;;;;;;;14.70;100.00;100216.63;5009799;28;20267;-71
2022/10/16 07:36:03;;;;;;;0.07;0.07;;;;;;;14.74;100.00;100234.84;5010610;28;20175;-72
2022/10/16 07:38:29;;;;;;;0.03;0.03;;;;;;;14.76;100.00;100246.31;5010832;28;20173;-72
2022/10/16 07:40:58;;;;;;;0.00;0.00;;;;;;;14.80;99.63;100241.72;5010602;28;20275;-72
2022/10/16 07:43:24;;;;;;;0.20;0.20;;;;;;;14.78;99.98;100229.47;5025096;28;20182;-72
2022/10/16 07:45:50;;;;;;;0.20;0.20;;;;;;;14.83;99.43;100230.03;5030329;28;20192;-71
2022/10/16 07:48:17;;;;;;;0.00;0.00;;;;;;;14.93;99.24;100242.53;5030457;28;20176;-73
2022/10/16 07:50:42;;;;;;;0.77;0.40;;;;;;;15.06;97.48;100254.31;5030169;28;20229;-72
2022/10/16 07:53:08;;;;;;;0.10;0.10;;;;;;;15.16;96.54;100254.63;5030522;28;20176;-72
2022/10/16 07:55:33;;;;;;;0.23;0.23;;;;;;;15.27;95.67;100252.22;5030444;28;20183;-80
2022/10/16 07:57:59;;;;;;;0.70;0.53;;;;;;;15.28;93.89;100253.00;5030349;28;20212;-72
2022/10/16 08:00:24;;;;;;;0.67;0.67;;;;;;;15.26;93.48;100261.63;5012676;28;20648;-72
2022/10/16 08:02:50;;;;;;;0.20;0.20;;;;;;;15.27;93.79;100257.72;5030259;28;20199;-75
2022/10/16 08:05:15;;;;;;;0.20;0.20;;;;;;;15.24;93.38;100266.66;5030289;28;20183;-73
2022/10/16 08:07:40;;;;;;;0.00;0.00;;;;;;;15.16;94.60;100260.13;5030174;28;20164;-75
2022/10/16 08:10:06;;;;;;;2.80;1.07;;;;;;;15.22;94.39;100265.41;5030409;28;20176;-74
2022/10/16 08:12:31;;;;;;;0.50;0.30;;;;;;;15.23;94.53;100261.53;5010682;28;20192;-74
2022/10/16 08:14:57;;;;;;;0.03;0.03;;;;;;;15.24;94.45;100272.19;5010235;28;20173;-74
2022/10/16 08:17:22;;;;;;;0.27;0.27;;;;;;;15.28;94.83;100284.09;5010142;28;20195;-74
2022/10/16 08:19:47;;;;;;;0.50;0.50;;;;;;;15.25;95.31;100290.28;5009611;28;20169;-74
2022/10/16 08:22:14;;;;;;;0.60;0.60;;;;;;;15.24;95.01;100293.41;5005198;28;20566;-74
2022/10/16 08:24:39;;;;;;;0.07;0.07;;;;;;;15.23;94.54;100298.09;4990268;28;20660;-74
2022/10/16 08:27:05;;;;;;;2.20;0.70;;;;;;;15.28;95.25;100297.84;5007771;28;20187;-75
2022/10/16 08:29:31;;;;;;;0.00;0.00;;;;;;;15.32;94.99;100297.94;5008838;28;20165;-74
2022/10/16 08:31:56;;;;;;;0.10;0.10;;;;;;;15.34;95.38;100309.44;5011429;28;20612;-74
2022/10/16 08:34:21;;;;;;;0.00;0.00;;;;;;;15.32;95.26;100300.69;5011947;28;20169;-75
2022/10/16 08:36:46;;;;;;;0.20;0.20;;;;;;;15.38;95.29;100305.66;5013512;28;20179;-75
2022/10/16 08:39:12;;;;;;;0.40;0.40;;;;;;;15.50;94.26;100307.56;5013530;28;20568;-75
2022/10/16 08:42:22;;;;;;;0.00;0.00;;;;;;;15.62;93.42;100306.75;5013295;28;20204;-74
2022/10/16 08:45:12;;;;;;;0.27;0.27;;;;;;;15.80;93.29;100308.09;5013686;28;20173;-73
2022/10/16 08:47:53;;;;;;;0.30;0.30;;;;;;;15.87;91.91;100305.53;5013691;28;20176;-74
2022/10/16 08:50:24;;;;;;;0.00;0.00;;;;;;;15.96;91.90;100305.38;5013345;28;20168;-74
2022/10/16 08:52:50;;;;;;;0.20;0.20;;;;;;;15.95;90.49;100306.53;5011252;28;20195;-74
2022/10/16 08:55:33;;;;;;;0.10;0.10;;;;;;;15.98;90.75;100308.59;5013421;28;20172;-74
2022/10/16 08:57:59;;;;;;;0.20;0.20;;;;;;;16.01;89.36;100313.41;4992357;28;20177;-73
2022/10/16 09:00:26;;;;;;;0.23;0.23;;;;;;;15.94;89.11;100314.00;5005386;28;20183;-74
2022/10/16 09:03:16;;;;;;;0.23;0.23;;;;;;;15.86;89.22;100320.47;5033209;28;20679;-74
2022/10/16 09:06:09;;;;;;;0.00;0.00;;;;;;;15.80;89.21;100316.34;5033331;28;20565;-73
2022/10/16 09:08:35;;;;;;;0.30;0.30;;;;;;;15.78;88.73;100321.41;5033109;28;20176;-74
2022/10/16 09:11:17;;;;;;;0.20;0.20;;;;;;;15.76;86.94;100327.25;5032866;28;20238;-74
2022/10/16 09:13:53;;;;;;;0.60;0.50;;;;;;;15.83;86.13;100329.44;5033159;28;20726;-74
2022/10/16 09:16:35;;;;;;;0.37;0.30;;;;;;;15.96;86.02;100339.25;5032878;28;20515;-73
2022/10/16 09:19:23;;;;;;;0.13;0.13;;;;;;;16.05;86.40;100345.41;5031671;28;20167;-74
2022/10/16 09:21:48;;;;;;;0.20;0.20;;;;;;;15.95;85.21;100343.16;5030478;28;20563;-74
2022/10/16 09:24:19;;;;;;;1.03;0.40;;;;;;;15.88;85.41;100342.94;5030859;28;20594;-73
2022/10/16 09:26:46;;;;;;;0.30;0.30;;;;;;;15.88;85.80;100348.44;5020476;28;20267;-73
2022/10/16 09:29:12;;;;;;;0.10;0.10;;;;;;;16.02;86.10;100348.06;5011527;28;20176;-74
2022/10/16 09:31:38;;;;;;;0.20;0.20;;;;;;;16.12;85.17;100344.03;5010618;28;20168;-73
2022/10/16 09:34:06;;;;;;;0.40;0.40;;;;;;;16.22;84.25;100352.59;5011460;28;20173;-73
2022/10/16 09:36:40;;;;;;;0.13;0.13;;;;;;;16.34;85.03;100349.75;5012116;28;20200;-73
2022/10/16 09:39:10;;;;;;;0.53;0.30;;;;;;;16.41;83.64;100349.16;5012205;28;20170;-73
2022/10/16 09:41:39;;;;;;;0.13;0.13;;;;;;;16.43;82.82;100362.59;5011825;28;20192;-74
2022/10/16 09:44:16;;;;;;;0.10;0.10;;;;;;;16.40;81.73;100361.34;5012143;28;20183;-73
2022/10/16 09:46:41;;;;;;;0.30;0.20;;;;;;;16.44;81.44;100365.00;5012130;28;20184;-73
2022/10/16 09:49:23;;;;;;;1.17;0.63;;;;;;;16.46;81.42;100376.47;5012268;28;20235;-73
2022/10/16 09:51:49;;;;;;;0.40;0.40;;;;;;;16.52;80.88;100366.81;5012022;28;20227;-74
2022/10/16 09:54:16;;;;;;;0.00;0.00;;;;;;;16.55;81.04;100371.59;5012102;28;20187;-73
2022/10/16 09:56:41;;;;;;;0.20;0.20;;;;;;;16.65;79.89;100373.84;5011715;28;20185;-73
2022/10/16 09:59:15;;;;;;;0.27;0.20;;;;;;;16.79;80.56;100380.94;5009113;28;20191;-73
2022/10/16 10:01:50;;;;;;;0.20;0.20;;;;;;;16.73;78.82;100385.09;5019922;28;20203;-73
2022/10/16 10:04:16;;;;;;;0.10;0.10;;;;;;;16.73;78.20;100382.34;5012481;28;20250;-73
2022/10/16 10:06:48;;;;;;;0.00;0.00;;;;;;;16.79;78.76;100380.94;5012463;28;20219;-73
2022/10/16 10:09:22;;;;;;;0.00;0.00;;;;;;;16.90;79.10;100393.03;5012459;28;20176;-73
2022/10/16 10:11:51;;;;;;;0.03;0.03;;;;;;;16.99;77.78;100392.88;5012388;28;20168;-73
2022/10/16 10:14:22;;;;;;;0.13;0.13;;;;;;;16.93;76.57;100384.88;5012318;28;20199;-73
2022/10/16 10:16:48;;;;;;;15.47;0.73;;;;;;;16.98;76.24;100400.34;5027744;28;20222;-72
2022/10/16 10:19:23;;;;;;;0.10;0.10;;;;;;;16.98;76.19;100394.81;5011651;28;20236;-73
2022/10/16 10:21:52;;;;;;;0.20;0.20;;;;;;;17.01;74.77;100396.88;5010727;28;20204;-73
2022/10/16 10:24:19;;;;;;;2.90;0.43;;;;;;;17.15;74.97;100400.00;5012207;28;20187;-73
2022/10/16 10:26:51;;;;;;;0.00;0.00;;;;;;;17.27;74.99;100395.53;5025521;28;20180;-73
2022/10/16 10:29:19;;;;;;;7.80;0.40;;;;;;;17.32;74.21;100396.06;5032860;28;20662;-73
2022/10/16 10:32:22;;;;;;;0.60;0.27;;;;;;;17.34;74.00;100393.72;5034224;28;20176;-72
2022/10/16 10:35:15;;;;;;;0.20;0.20;;;;;;;17.21;72.92;100398.56;5031953;28;20219;-73
2022/10/16 10:37:46;;;;;;;0.63;0.30;;;;;;;17.34;73.82;100410.31;5031144;28;20176;-73
2022/10/16 10:40:30;;;;;;;0.53;0.23;;;;;;;17.46;73.71;100407.44;5019472;28;20231;-72
2022/10/16 10:42:58;;;;;;;0.30;0.30;;;;;;;17.58;73.30;100406.53;5009757;28;20266;-74
2022/10/16 10:45:37;;;;;;;1.00;0.60;;;;;;;17.68;72.20;100396.91;5010798;28;20567;-73
2022/10/16 10:48:51;;;;;;;0.27;0.27;;;;;;;17.76;72.50;100413.28;5009993;28;20199;-73
2022/10/16 10:51:25;;;;;;;0.00;0.00;;;;;;;17.82;70.98;100419.34;4981305;28;20216;-72
2022/10/16 10:54:03;;;;;;;0.30;0.30;;;;;;;17.91;71.11;100419.13;5010870;28;20192;-74
2022/10/16 10:56:56;;;;;;;7.63;0.27;;;;;;;17.82;69.91;100417.41;5010778;28;20231;-71
2022/10/16 10:59:31;;;;;;;0.10;0.10;;;;;;;17.64;71.47;100429.94;5010812;28;20180;-72
2022/10/16 11:02:03;;;;;;;1.13;1.03;;;;;;;17.58;70.06;100423.13;5013059;28;20206;-73
2022/10/16 11:04:38;;;;;;;1.70;1.60;;;;;;;17.36;70.68;100434.78;5030625;28;20596;-72
2022/10/16 11:07:17;;;;;;;0.20;0.20;;;;;;;17.10;71.38;100427.88;5014768;28;20188;-71
2022/10/16 11:09:53;;;;;;;0.00;0.00;;;;;;;17.20;71.18;100421.78;5008868;28;20668;-71
2022/10/16 11:12:26;;;;;;;0.00;0.00;;;;;;;17.37;70.91;100428.13;5009493;28;20180;-72
2022/10/16 11:15:10;;;;;;;0.60;0.40;;;;;;;17.32;69.68;100423.66;5008906;28;20275;-71
2022/10/16 11:17:41;;;;;;;0.00;0.00;;;;;;;17.43;70.72;100426.69;5007546;28;20180;-71
2022/10/16 11:20:18;;;;;;;0.10;0.10;;;;;;;17.63;69.09;100422.03;5010647;28;20212;-71
2022/10/16 11:22:50;;;;;;;0.47;0.40;;;;;;;17.69;68.61;100423.41;5010762;28;20640;-71
2022/10/16 11:25:32;;;;;;;0.20;0.20;;;;;;;17.75;68.00;100421.94;5011132;28;20184;-71
2022/10/16 11:28:00;;;;;;;1.43;0.27;;;;;;;17.72;67.53;100430.97;5010411;28;20686;-71
2022/10/16 11:30:30;;;;;;;0.17;0.17;;;;;;;17.69;67.14;100429.72;5010740;28;20188;-71